createdAt,value
2022-10-28T00:01:21.868Z,13.90
2022-10-28T00:03:51.869Z,13.85
2022-10-28T00:06:24.128Z,13.30
2022-10-28T00:08:51.391Z,12.48
2022-10-28T00:11:24.660Z,14.07
2022-10-28T00:13:56.985Z,14.32
2022-10-28T00:16:29.646Z,14.35
2022-10-28T00:18:59.427Z,13.63
2022-10-28T00:21:29.721Z,14.25
2022-10-28T00:23:57.413Z,14.70
2022-10-28T00:26:26.851Z,14.82
2022-10-28T00:28:57.968Z,13.75
2022-10-28T00:31:26.900Z,14.73
2022-10-28T00:33:54.660Z,14.27
2022-10-28T00:36:25.471Z,13.85
2022-10-28T00:38:55.414Z,13.13
2022-10-28T00:41:29.015Z,14.65
2022-10-28T00:44:34.439Z,13.73
2022-10-28T00:47:01.603Z,14.13
2022-10-28T00:49:32.574Z,12.85
2022-10-28T00:52:08.723Z,14.85
2022-10-28T00:54:38.099Z,13.60
2022-10-28T00:57:10.614Z,13.30
2022-10-28T00:59:41.804Z,14.57
2022-10-28T01:02:09.073Z,14.68
2022-10-28T01:04:36.282Z,13.93
2022-10-28T01:07:03.535Z,12.85
2022-10-28T01:09:32.409Z,13.88
2022-10-28T01:12:35.565Z,13.45
2022-10-28T01:15:25.657Z,13.25
2022-10-28T01:18:12.744Z,12.43
2022-10-28T01:20:41.723Z,12.60
2022-10-28T01:23:31.744Z,11.98
2022-10-28T01:26:07.615Z,12.45
2022-10-28T01:28:46.539Z,10.90
2022-10-28T01:31:38.249Z,12.32
2022-10-28T01:34:28.752Z,11.80
2022-10-28T01:37:17.373Z,10.70
2022-10-28T01:40:02.931Z,12.23
2022-10-28T01:43:16.633Z,10.95
2022-10-28T01:45:59.441Z,11.18
2022-10-28T01:48:47.735Z,10.93
2022-10-28T01:51:26.891Z,11.07
2022-10-28T01:53:57.198Z,10.25
2022-10-28T01:56:39.248Z,11.23
2022-10-28T01:59:11.669Z,11.68
2022-10-28T02:01:38.834Z,11.90
2022-10-28T02:04:06.133Z,10.95
2022-10-28T02:06:34.949Z,11.20
2022-10-28T02:09:24.692Z,11.32
2022-10-28T02:12:17.313Z,11.20
2022-10-28T02:15:21.718Z,10.75
2022-10-28T02:18:00.642Z,10.07
2022-10-28T02:20:33.895Z,9.32
2022-10-28T02:23:25.498Z,10.90
2022-10-28T02:25:59.361Z,9.70
2022-10-28T02:28:53.556Z,10.35
2022-10-28T02:31:37.848Z,10.15
2022-10-28T02:34:09.651Z,10.23
2022-10-28T02:36:41.862Z,10.13
2022-10-28T02:39:08.950Z,10.77
2022-10-28T02:41:51.099Z,10.02
2022-10-28T02:44:23.915Z,11.07
2022-10-28T02:46:52.713Z,10.10
2022-10-28T02:49:20.155Z,10.57
2022-10-28T02:51:53.927Z,10.40
2022-10-28T02:54:34.735Z,11.40
2022-10-28T02:57:08.305Z,10.75
2022-10-28T02:59:35.350Z,11.48
2022-10-28T03:02:02.464Z,10.32
2022-10-28T03:04:29.675Z,11.25
2022-10-28T03:06:56.773Z,10.70
2022-10-28T03:09:23.866Z,10.55
2022-10-28T03:11:50.964Z,11.10
2022-10-28T03:14:17.996Z,10.70
2022-10-28T03:16:45.055Z,10.77
2022-10-28T03:19:12.165Z,11.02
2022-10-28T03:21:39.190Z,10.93
2022-10-28T03:24:06.560Z,10.10
2022-10-28T03:26:33.625Z,10.50
2022-10-28T03:29:00.736Z,10.98
2022-10-28T03:31:27.770Z,11.32
2022-10-28T03:33:54.920Z,11.18
2022-10-28T03:36:21.948Z,10.13
2022-10-28T03:38:49.006Z,9.75
2022-10-28T03:41:16.179Z,10.32
2022-10-28T03:43:43.464Z,10.80
2022-10-28T03:46:10.473Z,9.77
2022-10-28T03:48:37.498Z,9.55
2022-10-28T03:51:04.689Z,9.82
2022-10-28T03:53:31.763Z,9.63
2022-10-28T03:56:02.702Z,9.50
2022-10-28T03:58:29.868Z,10.30
2022-10-28T04:00:57.265Z,9.85
2022-10-28T04:03:25.672Z,10.82
2022-10-28T04:05:53.083Z,9.40
2022-10-28T04:08:21.242Z,9.52
2022-10-28T04:10:48.638Z,9.88
2022-10-28T04:13:16.680Z,11.00
2022-10-28T04:15:44.224Z,10.25
2022-10-28T04:18:11.499Z,11.32
2022-10-28T04:20:38.577Z,9.88
2022-10-28T04:23:05.746Z,10.25
2022-10-28T04:25:33.211Z,11.25
2022-10-28T04:28:02.565Z,10.18
2022-10-28T04:30:29.612Z,11.05
2022-10-28T04:32:56.612Z,12.00
2022-10-28T04:35:24.060Z,11.02
2022-10-28T04:37:51.161Z,9.20
2022-10-28T04:40:18.557Z,10.15
2022-10-28T04:42:45.683Z,10.98
2022-10-28T04:45:12.733Z,10.93
2022-10-28T04:47:39.817Z,11.30
2022-10-28T04:50:07.205Z,10.80
2022-10-28T04:52:34.361Z,9.50
2022-10-28T04:55:01.492Z,9.85
2022-10-28T04:57:30.563Z,11.48
2022-10-28T04:59:57.507Z,10.38
2022-10-28T05:02:24.754Z,10.98
2022-10-28T05:04:52.144Z,11.73
2022-10-28T05:07:21.302Z,11.10
2022-10-28T05:09:50.582Z,11.32
2022-10-28T05:12:17.685Z,11.05
2022-10-28T05:14:44.860Z,10.27
2022-10-28T05:17:12.178Z,10.63
2022-10-28T05:19:39.180Z,11.65
2022-10-28T05:22:06.218Z,11.07
2022-10-28T05:24:33.152Z,11.32
2022-10-28T05:27:01.042Z,11.30
2022-10-28T05:29:33.018Z,11.15
2022-10-28T05:32:01.066Z,10.50
2022-10-28T05:34:28.155Z,11.75
2022-10-28T05:36:55.173Z,11.43
2022-10-28T05:39:22.309Z,11.55
2022-10-28T05:41:49.364Z,11.60
2022-10-28T05:44:16.280Z,11.45
2022-10-28T05:46:43.477Z,10.98
2022-10-28T05:49:10.810Z,12.02
2022-10-28T05:51:37.918Z,11.63
2022-10-28T05:54:05.072Z,11.23
2022-10-28T05:56:32.004Z,11.02
2022-10-28T05:58:58.939Z,11.15
2022-10-28T06:01:25.908Z,11.48
2022-10-28T06:03:52.982Z,10.25
2022-10-28T06:06:20.070Z,11.15
2022-10-28T06:08:46.958Z,11.02
2022-10-28T06:11:12.776Z,12.13
2022-10-28T06:13:39.689Z,12.65
2022-10-28T06:16:07.447Z,11.15
2022-10-28T06:18:34.625Z,12.13
2022-10-28T06:21:01.879Z,11.18
2022-10-28T06:23:29.035Z,11.48
2022-10-28T06:26:00.918Z,11.23
2022-10-28T06:28:28.346Z,10.68
2022-10-28T06:31:03.134Z,11.38
2022-10-28T06:33:31.724Z,11.63
2022-10-28T06:35:59.818Z,11.30
2022-10-28T06:38:27.774Z,10.80
2022-10-28T06:40:58.354Z,12.32
2022-10-28T06:43:25.478Z,11.15
2022-10-28T06:45:55.706Z,11.15
2022-10-28T06:48:24.545Z,12.23
2022-10-28T06:50:51.656Z,11.13
2022-10-28T06:53:18.674Z,13.32
2022-10-28T06:55:53.058Z,12.38
2022-10-28T06:58:20.420Z,12.73
2022-10-28T07:00:47.928Z,11.80
2022-10-28T07:03:15.456Z,11.55
2022-10-28T07:05:42.484Z,11.90
2022-10-28T07:08:09.588Z,12.50
2022-10-28T07:10:36.702Z,12.45
2022-10-28T07:13:04.382Z,12.88
2022-10-28T07:15:31.658Z,12.25
2022-10-28T07:17:59.576Z,12.55
2022-10-28T07:20:28.148Z,11.63
2022-10-28T07:23:02.543Z,12.30
2022-10-28T07:25:31.159Z,11.75
2022-10-28T07:27:59.439Z,13.05
2022-10-28T07:30:27.837Z,12.18
2022-10-28T07:32:55.019Z,12.63
2022-10-28T07:35:22.295Z,12.27
2022-10-28T07:37:49.250Z,11.73
2022-10-28T07:40:16.560Z,11.45
2022-10-28T07:42:43.580Z,12.52
2022-10-28T07:45:10.713Z,12.05
2022-10-28T07:47:37.833Z,13.60
2022-10-28T07:50:06.427Z,13.25
2022-10-28T07:52:34.833Z,12.60
2022-10-28T07:55:02.868Z,12.45
2022-10-28T07:57:30.575Z,13.35
2022-10-28T07:59:57.771Z,12.27
2022-10-28T08:02:25.977Z,12.13
2022-10-28T08:04:53.356Z,12.15
2022-10-28T08:07:20.780Z,11.68
2022-10-28T08:09:47.833Z,12.05
2022-10-28T08:12:15.888Z,12.50
2022-10-28T08:14:43.027Z,12.93
2022-10-28T08:17:10.156Z,10.73
2022-10-28T08:19:37.468Z,10.23
2022-10-28T08:22:04.722Z,10.63
2022-10-28T08:24:31.861Z,10.20
2022-10-28T08:26:58.916Z,9.18
2022-10-28T08:29:29.078Z,10.10
2022-10-28T08:31:57.993Z,9.85
2022-10-28T08:34:29.901Z,9.98
2022-10-28T08:36:57.875Z,11.13
2022-10-28T08:39:25.176Z,10.05
2022-10-28T08:42:24.100Z,10.85
2022-10-28T08:45:16.254Z,10.02
2022-10-28T08:48:14.626Z,9.85
2022-10-28T08:50:53.608Z,9.98
2022-10-28T08:53:35.549Z,10.40
2022-10-28T08:56:14.731Z,10.30
2022-10-28T08:58:45.073Z,10.75
2022-10-28T09:01:21.418Z,10.52
2022-10-28T09:03:51.493Z,9.45
2022-10-28T09:06:18.433Z,10.73
2022-10-28T09:08:49.310Z,9.95
2022-10-28T09:11:26.283Z,10.55
2022-10-28T09:14:09.431Z,10.05
2022-10-28T09:16:47.179Z,10.02
2022-10-28T09:19:14.099Z,10.50
2022-10-28T09:22:22.780Z,10.13
2022-10-28T09:27:42.082Z,9.88
2022-10-28T09:30:46.409Z,9.57
2022-10-28T09:33:40.962Z,10.32
2022-10-28T09:36:16.943Z,9.15
2022-10-28T09:38:45.084Z,9.20
2022-10-28T09:41:20.910Z,9.55
2022-10-28T09:44:04.427Z,8.65
2022-10-28T09:46:36.209Z,9.43
2022-10-28T09:49:10.802Z,9.55
2022-10-28T09:51:52.893Z,9.82
2022-10-28T09:54:28.558Z,9.32
2022-10-28T09:56:55.560Z,12.77
2022-10-28T09:59:22.575Z,9.70
2022-10-28T10:01:49.736Z,10.13
2022-10-28T10:04:21.122Z,10.10
2022-10-28T10:06:56.678Z,9.55
2022-10-28T10:09:27.476Z,9.10
2022-10-28T10:11:59.814Z,8.88
2022-10-28T10:14:36.933Z,10.30
2022-10-28T10:17:10.531Z,9.77
2022-10-28T10:20:00.788Z,9.48
2022-10-28T10:22:37.320Z,9.38
2022-10-28T10:25:23.288Z,9.75
2022-10-28T10:27:51.951Z,9.77
2022-10-28T10:30:23.589Z,10.35
2022-10-28T10:32:52.131Z,9.52
2022-10-28T10:35:29.683Z,9.27
2022-10-28T10:37:59.769Z,10.52
2022-10-28T10:40:37.188Z,10.10
2022-10-28T10:43:27.402Z,10.77
2022-10-28T10:46:12.319Z,11.25
2022-10-28T10:48:39.357Z,9.95
2022-10-28T10:51:18.254Z,10.00
2022-10-28T10:53:49.575Z,10.57
2022-10-28T10:56:26.586Z,10.88
2022-10-28T10:58:56.404Z,10.70
2022-10-28T11:01:27.745Z,11.45
2022-10-28T11:04:08.787Z,10.75
2022-10-28T11:06:42.500Z,10.75
2022-10-28T11:09:27.866Z,10.80
2022-10-28T11:11:56.042Z,10.27
2022-10-28T11:14:26.481Z,10.60
2022-10-28T11:16:55.977Z,9.57
2022-10-28T11:19:35.027Z,10.45
2022-10-28T11:22:13.312Z,9.45
2022-10-28T11:25:17.042Z,11.63
2022-10-28T11:28:21.517Z,10.25
2022-10-28T11:31:18.998Z,10.65
2022-10-28T11:33:49.028Z,9.00
2022-10-28T11:36:22.293Z,9.10
2022-10-28T11:39:25.115Z,9.45
2022-10-28T11:41:51.983Z,8.15
2022-10-28T11:44:21.745Z,8.23
2022-10-28T11:47:19.842Z,8.40
2022-10-28T11:52:34.727Z,7.25
2022-10-28T11:55:26.503Z,8.23
2022-10-28T11:58:25.669Z,8.57
2022-10-28T12:01:32.107Z,8.65
2022-10-28T12:04:05.164Z,8.55
2022-10-28T12:06:41.191Z,8.25
2022-10-28T12:09:35.658Z,8.80
2022-10-28T12:12:09.961Z,8.13
2022-10-28T12:14:58.798Z,8.75
2022-10-28T12:17:47.532Z,8.40
2022-10-28T12:20:27.317Z,8.30
2022-10-28T12:23:03.397Z,8.18
2022-10-28T12:25:38.018Z,8.60
2022-10-28T12:28:22.162Z,8.77
2022-10-28T12:30:54.782Z,8.65
2022-10-28T12:33:33.515Z,8.30
2022-10-28T12:36:10.224Z,8.43
2022-10-28T12:38:50.784Z,8.68
2022-10-28T12:41:33.035Z,8.18
2022-10-28T12:44:13.351Z,7.78
2022-10-28T12:47:17.730Z,8.35
2022-10-28T12:50:09.168Z,8.75
2022-10-28T12:52:42.400Z,8.25
2022-10-28T12:55:38.072Z,7.90
2022-10-28T12:58:15.857Z,8.68
2022-10-28T13:00:47.862Z,9.00
2022-10-28T13:03:16.276Z,8.18
2022-10-28T13:05:51.442Z,8.70
2022-10-28T13:08:39.345Z,8.02
2022-10-28T13:11:40.386Z,9.07
2022-10-28T13:14:35.175Z,8.48
2022-10-28T13:17:43.858Z,8.32
2022-10-28T13:20:39.271Z,8.93
2022-10-28T13:23:13.108Z,9.00
2022-10-28T13:25:40.321Z,9.15
2022-10-28T13:28:14.653Z,8.57
2022-10-28T13:30:54.296Z,7.68
2022-10-28T13:33:26.872Z,7.25
2022-10-28T13:36:07.481Z,8.15
2022-10-28T13:38:35.385Z,8.35
2022-10-28T13:41:02.320Z,7.85
2022-10-28T13:43:50.998Z,8.55
2022-10-28T13:46:55.618Z,8.00
2022-10-28T13:49:24.707Z,8.38
2022-10-28T13:52:00.060Z,7.40
2022-10-28T13:54:51.364Z,7.50
2022-10-28T13:57:36.961Z,7.50
2022-10-28T14:00:15.932Z,7.25
2022-10-28T14:03:17.338Z,7.85
2022-10-28T14:05:44.392Z,6.45
2022-10-28T14:08:32.656Z,9.20
2022-10-28T14:11:04.730Z,7.32
2022-10-28T14:13:37.374Z,7.20
2022-10-28T14:16:36.920Z,7.60
2022-10-28T14:19:15.201Z,7.45
2022-10-28T14:21:51.340Z,7.53
2022-10-28T14:24:35.702Z,7.73
2022-10-28T14:27:05.706Z,7.88
2022-10-28T14:30:02.415Z,7.57
2022-10-28T14:32:33.789Z,7.35
2022-10-28T14:35:05.990Z,8.02
2022-10-28T14:37:36.045Z,8.48
2022-10-28T14:40:31.098Z,8.07
2022-10-28T14:43:29.374Z,7.78
2022-10-28T14:46:31.176Z,7.57
2022-10-28T14:49:00.899Z,7.43
2022-10-28T14:51:37.205Z,8.63
2022-10-28T14:54:12.398Z,7.82
2022-10-28T14:56:41.146Z,8.38
2022-10-28T14:59:27.881Z,18.17
2022-10-28T15:02:21.998Z,9.73
2022-10-28T15:05:01.711Z,9.18
2022-10-28T15:07:35.520Z,9.38
2022-10-28T15:10:28.684Z,8.90
2022-10-28T15:13:00.720Z,9.80
2022-10-28T15:15:34.616Z,8.55
2022-10-28T15:18:02.425Z,8.57
2022-10-28T15:20:32.510Z,9.35
2022-10-28T15:26:14.924Z,9.43
2022-10-28T15:28:43.127Z,8.32
2022-10-28T15:31:10.606Z,8.93
2022-10-28T15:33:39.811Z,9.27
2022-10-28T15:36:25.466Z,9.32
2022-10-28T15:39:16.555Z,9.35
2022-10-28T15:41:49.616Z,10.65
2022-10-28T15:44:37.144Z,9.90
2022-10-28T15:47:29.495Z,9.30
2022-10-28T15:50:14.770Z,9.48
2022-10-28T15:52:57.360Z,8.93
2022-10-28T15:55:35.848Z,9.07
2022-10-28T15:58:19.307Z,9.10
2022-10-28T16:00:58.319Z,8.73
2022-10-28T16:03:47.632Z,8.98
2022-10-28T16:06:34.776Z,8.65
2022-10-28T16:09:16.658Z,9.70
2022-10-28T16:11:49.759Z,9.13
2022-10-28T16:14:45.766Z,8.90
2022-10-28T16:17:23.949Z,9.52
2022-10-28T16:19:56.009Z,9.57
2022-10-28T16:22:26.162Z,10.65
2022-10-28T16:24:54.381Z,8.70
2022-10-28T16:27:22.896Z,8.60
2022-10-28T16:29:50.670Z,9.43
2022-10-28T16:32:22.630Z,9.45
2022-10-28T16:34:49.712Z,9.20
2022-10-28T16:37:26.048Z,8.88
2022-10-28T16:39:53.309Z,9.30
2022-10-28T16:42:21.296Z,9.80
2022-10-28T16:44:48.427Z,9.25
2022-10-28T16:47:18.252Z,8.35
2022-10-28T16:49:45.894Z,8.90
2022-10-28T16:52:21.017Z,8.15
2022-10-28T16:54:48.946Z,8.40
2022-10-28T16:57:17.106Z,8.73
2022-10-28T16:59:44.091Z,9.40
2022-10-28T17:02:30.856Z,8.65
2022-10-28T17:04:59.413Z,8.43
2022-10-28T17:07:28.029Z,8.50
2022-10-28T17:09:55.150Z,9.45
2022-10-28T17:12:24.812Z,8.40
2022-10-28T17:14:52.420Z,8.93
2022-10-28T17:17:19.714Z,8.68
2022-10-28T17:19:47.629Z,9.52
2022-10-28T17:22:14.841Z,8.73
2022-10-28T17:24:42.022Z,8.98
2022-10-28T17:27:09.064Z,11.63
2022-10-28T17:29:36.279Z,9.95
2022-10-28T17:32:03.504Z,9.50
2022-10-28T17:34:30.550Z,9.50
2022-10-28T17:36:57.587Z,8.52
2022-10-28T17:39:26.387Z,11.68
2022-10-28T17:41:54.014Z,9.05
2022-10-28T17:44:20.964Z,9.02
2022-10-28T17:46:52.060Z,8.45
2022-10-28T17:49:19.403Z,8.30
2022-10-28T17:51:46.386Z,9.25
2022-10-28T17:54:13.564Z,8.30
2022-10-28T17:56:42.294Z,8.80
2022-10-28T17:59:09.651Z,8.65
2022-10-28T18:01:37.235Z,9.18
2022-10-28T18:04:06.265Z,9.80
2022-10-28T18:06:33.493Z,8.70
2022-10-28T18:09:00.589Z,9.38
2022-10-28T18:11:27.729Z,9.30
2022-10-28T18:13:56.439Z,8.63
2022-10-28T18:16:30.710Z,8.98
2022-10-28T18:19:07.309Z,8.25
2022-10-28T18:21:35.187Z,8.60
2022-10-28T18:24:05.330Z,8.90
2022-10-28T18:26:34.795Z,7.82
2022-10-28T18:29:05.331Z,9.68
2022-10-28T18:31:33.827Z,8.65
2022-10-28T18:34:02.698Z,8.52
2022-10-28T18:36:34.537Z,8.25
2022-10-28T18:39:04.295Z,8.27
2022-10-28T18:41:32.661Z,9.32
2022-10-28T18:44:01.917Z,8.55
2022-10-28T18:46:31.617Z,8.32
2022-10-28T18:51:25.921Z,9.00
2022-10-28T18:53:53.091Z,8.40
2022-10-28T18:56:22.785Z,8.68
2022-10-28T18:58:51.657Z,8.88
2022-10-28T19:01:24.346Z,9.32
2022-10-28T19:03:57.060Z,9.00
2022-10-28T19:06:26.179Z,9.10
2022-10-28T19:08:55.453Z,9.25
2022-10-28T19:11:25.913Z,8.95
2022-10-28T19:13:53.033Z,9.77
2022-10-28T19:16:20.080Z,9.32
2022-10-28T19:18:47.193Z,9.23
2022-10-28T19:21:16.572Z,9.95
2022-10-28T19:23:45.170Z,8.65
2022-10-28T19:26:13.854Z,9.63
2022-10-28T19:28:43.792Z,10.40
2022-10-28T19:31:19.530Z,10.55
2022-10-28T19:33:46.887Z,10.60
2022-10-28T19:36:18.853Z,10.38
2022-10-28T19:38:48.092Z,10.63
2022-10-28T19:41:19.777Z,10.32
2022-10-28T19:43:49.160Z,10.65
2022-10-28T19:46:22.393Z,10.57
2022-10-28T19:48:51.364Z,9.77
2022-10-28T19:51:21.269Z,10.15
2022-10-28T19:53:49.918Z,10.35
2022-10-28T19:56:19.515Z,10.25
2022-10-28T19:59:07.678Z,9.90
2022-10-28T20:01:38.528Z,10.00
2022-10-28T20:04:06.713Z,8.73
2022-10-28T20:06:36.274Z,10.02
2022-10-28T20:09:03.999Z,9.82
2022-10-28T20:11:33.264Z,9.38
2022-10-28T20:14:12.105Z,9.77
2022-10-28T20:16:42.857Z,9.82
2022-10-28T20:19:10.738Z,9.63
2022-10-28T20:21:39.420Z,9.68
2022-10-28T20:24:07.780Z,10.30
2022-10-28T20:26:37.096Z,9.98
2022-10-28T20:29:06.944Z,10.52
2022-10-28T20:31:34.337Z,10.13
2022-10-28T20:34:04.011Z,10.00
2022-10-28T20:36:33.463Z,10.40
2022-10-28T20:39:06.971Z,9.77
2022-10-28T20:41:35.407Z,9.90
2022-10-28T20:44:05.355Z,10.27
2022-10-28T20:46:32.808Z,10.02
2022-10-28T20:49:01.040Z,9.80
2022-10-28T20:51:30.538Z,10.02
2022-10-28T20:53:58.193Z,10.23
2022-10-28T20:56:27.348Z,10.82
2022-10-28T20:58:56.018Z,9.73
2022-10-28T21:01:37.451Z,10.18
2022-10-28T21:04:08.955Z,9.45
2022-10-28T21:06:39.479Z,10.98
2022-10-28T21:09:07.977Z,11.32
2022-10-28T21:11:34.983Z,11.45
2022-10-28T21:14:02.385Z,10.05
2022-10-28T21:16:30.268Z,10.82
2022-10-28T21:18:59.242Z,10.60
2022-10-28T21:21:27.484Z,10.55
2022-10-28T21:23:54.547Z,10.75
2022-10-28T21:26:21.767Z,10.45
2022-10-28T21:28:50.293Z,10.30
2022-10-28T21:31:18.314Z,10.95
2022-10-28T21:33:46.118Z,11.55
2022-10-28T21:36:15.852Z,10.55
2022-10-28T21:38:43.350Z,11.35
2022-10-28T21:41:14.450Z,11.48
2022-10-28T21:43:44.102Z,10.88
2022-10-28T21:46:12.629Z,10.65
2022-10-28T21:48:40.590Z,11.30
2022-10-28T21:51:14.523Z,10.75
2022-10-28T21:53:43.979Z,9.63
2022-10-28T21:56:18.533Z,10.45
2022-10-28T21:58:48.821Z,10.80
2022-10-28T22:01:21.185Z,10.02
2022-10-28T22:03:49.362Z,10.05
2022-10-28T22:06:16.340Z,10.88
2022-10-28T22:08:43.575Z,10.57
2022-10-28T22:11:18.033Z,10.63
2022-10-28T22:13:45.815Z,9.85
2022-10-28T22:16:18.048Z,10.05
2022-10-28T22:18:45.565Z,9.88
2022-10-28T22:21:17.168Z,9.38
2022-10-28T22:23:44.734Z,9.25
2022-10-28T22:26:14.140Z,10.40
2022-10-28T22:28:41.342Z,10.05
2022-10-28T22:31:15.311Z,9.90
2022-10-28T22:33:42.426Z,9.85
2022-10-28T22:36:17.145Z,9.20
2022-10-28T22:38:44.717Z,9.50
2022-10-28T22:41:29.351Z,9.48
2022-10-28T22:43:59.175Z,9.30
2022-10-28T22:46:28.844Z,9.13
2022-10-28T22:48:56.419Z,9.52
2022-10-28T22:51:26.264Z,9.63
2022-10-28T22:53:53.327Z,8.82
2022-10-28T22:56:22.266Z,8.30
2022-10-28T22:58:53.676Z,9.77
2022-10-28T23:01:21.926Z,9.40
2022-10-28T23:03:50.628Z,9.93
2022-10-28T23:06:20.226Z,9.25
2022-10-28T23:08:47.690Z,9.43
2022-10-28T23:11:16.395Z,9.77
2022-10-28T23:13:43.827Z,9.10
2022-10-28T23:16:13.502Z,9.60
2022-10-28T23:18:41.234Z,9.73
2022-10-28T23:21:12.483Z,9.73
2022-10-28T23:23:40.435Z,10.70
2022-10-28T23:26:10.577Z,9.65
2022-10-28T23:28:37.546Z,10.02
2022-10-28T23:31:06.240Z,9.63
2022-10-28T23:33:34.837Z,10.55
2022-10-28T23:36:03.921Z,9.95
2022-10-28T23:38:31.436Z,10.02
2022-10-28T23:41:00.657Z,9.52
2022-10-28T23:43:28.882Z,9.95
2022-10-28T23:45:56.835Z,9.55
2022-10-28T23:48:25.154Z,9.65
2022-10-28T23:50:52.691Z,9.38
2022-10-28T23:53:20.319Z,9.00
2022-10-28T23:55:49.262Z,8.60
2022-10-28T23:58:18.044Z,8.93
